sensor_id;sensor_type;location;lat;lon;timestamp;temperature;humidity
42145;DHT22;27813;43.516;11.890;2022-12-20T00:02:49;7.40;98.40
42145;DHT22;27813;43.516;11.890;2022-12-20T00:06:53;7.30;98.30
42145;DHT22;27813;43.516;11.890;2022-12-20T00:11:00;7.40;98.30
42145;DHT22;27813;43.516;11.890;2022-12-20T00:15:04;7.30;98.30
42145;DHT22;27813;43.516;11.890;2022-12-20T00:19:09;7.40;98.30
42145;DHT22;27813;43.516;11.890;2022-12-20T00:23:13;7.40;98.30
42145;DHT22;27813;43.516;11.890;2022-12-20T00:27:17;7.40;98.30
42145;DHT22;27813;43.516;11.890;2022-12-20T05:38:32;7.40;98.40
42145;DHT22;27813;43.516;11.890;2022-12-20T05:42:37;7.50;98.40
42145;DHT22;27813;43.516;11.890;2022-12-20T05:46:45;7.50;98.40
42145;DHT22;27813;43.516;11.890;2022-12-20T05:50:57;7.40;98.40
42145;DHT22;27813;43.516;11.890;2022-12-20T05:55:04;7.50;98.40
42145;DHT22;27813;43.516;11.890;2022-12-20T05:59:10;7.50;98.40
42145;DHT22;27813;43.516;11.890;2022-12-20T06:03:22;7.40;98.40
42145;DHT22;27813;43.516;11.890;2022-12-20T06:07:45;7.40;98.40
42145;DHT22;27813;43.516;11.890;2022-12-20T06:11:50;7.40;98.40
42145;DHT22;27813;43.516;11.890;2022-12-20T06:15:54;7.40;98.40
42145;DHT22;27813;43.516;11.890;2022-12-20T06:19:58;7.40;98.40
42145;DHT22;27813;43.516;11.890;2022-12-20T06:24:02;7.40;98.40
42145;DHT22;27813;43.516;11.890;2022-12-20T06:28:07;7.40;98.40
42145;DHT22;27813;43.516;11.890;2022-12-20T06:32:12;7.40;98.50
42145;DHT22;27813;43.516;11.890;2022-12-20T06:36:16;7.40;98.40
42145;DHT22;27813;43.516;11.890;2022-12-20T06:40:20;7.40;98.40
42145;DHT22;27813;43.516;11.890;2022-12-20T06:44:24;7.40;98.50
42145;DHT22;27813;43.516;11.890;2022-12-20T06:48:29;7.50;98.50
42145;DHT22;27813;43.516;11.890;2022-12-20T06:52:33;7.50;98.50
42145;DHT22;27813;43.516;11.890;2022-12-20T06:56:37;7.50;98.50
42145;DHT22;27813;43.516;11.890;2022-12-20T07:00:46;7.60;98.50
42145;DHT22;27813;43.516;11.890;2022-12-20T07:04:50;7.70;98.60
42145;DHT22;27813;43.516;11.890;2022-12-20T07:08:54;7.70;98.60
42145;DHT22;27813;43.516;11.890;2022-12-20T07:12:58;7.80;98.60
42145;DHT22;27813;43.516;11.890;2022-12-20T07:17:03;7.80;98.50
42145;DHT22;27813;43.516;11.890;2022-12-20T07:21:08;7.80;98.50
42145;DHT22;27813;43.516;11.890;2022-12-20T07:25:12;7.80;98.50
42145;DHT22;27813;43.516;11.890;2022-12-20T07:29:15;7.80;98.50
42145;DHT22;27813;43.516;11.890;2022-12-20T07:33:19;7.90;98.50
42145;DHT22;27813;43.516;11.890;2022-12-20T07:37:23;7.80;98.50
42145;DHT22;27813;43.516;11.890;2022-12-20T07:41:27;7.90;98.50
42145;DHT22;27813;43.516;11.890;2022-12-20T07:45:31;7.90;98.50
42145;DHT22;27813;43.516;11.890;2022-12-20T07:49:36;7.90;98.50
42145;DHT22;27813;43.516;11.890;2022-12-20T07:53:44;8.00;98.60
42145;DHT22;27813;43.516;11.890;2022-12-20T07:57:55;8.10;98.60
42145;DHT22;27813;43.516;11.890;2022-12-20T08:02:00;8.20;98.60
42145;DHT22;27813;43.516;11.890;2022-12-20T08:06:07;8.20;98.60
42145;DHT22;27813;43.516;11.890;2022-12-20T08:10:13;8.20;98.60
42145;DHT22;27813;43.516;11.890;2022-12-20T08:14:19;8.30;98.60
42145;DHT22;27813;43.516;11.890;2022-12-20T08:18:23;8.30;98.60
42145;DHT22;27813;43.516;11.890;2022-12-20T08:22:27;8.40;98.60
42145;DHT22;27813;43.516;11.890;2022-12-20T08:26:37;8.40;98.60
42145;DHT22;27813;43.516;11.890;2022-12-20T08:30:40;8.50;98.60
42145;DHT22;27813;43.516;11.890;2022-12-20T08:34:45;8.50;98.50
42145;DHT22;27813;43.516;11.890;2022-12-20T08:38:50;8.50;98.50
42145;DHT22;27813;43.516;11.890;2022-12-20T08:42:54;8.60;98.50
42145;DHT22;27813;43.516;11.890;2022-12-20T08:46:58;8.70;98.60
42145;DHT22;27813;43.516;11.890;2022-12-20T08:51:04;8.90;98.70
42145;DHT22;27813;43.516;11.890;2022-12-20T08:55:08;9.00;98.70
42145;DHT22;27813;43.516;11.890;2022-12-20T08:59:15;9.20;98.70
42145;DHT22;27813;43.516;11.890;2022-12-20T09:03:19;9.20;98.60
42145;DHT22;27813;43.516;11.890;2022-12-20T09:07:23;9.20;98.50
42145;DHT22;27813;43.516;11.890;2022-12-20T09:11:27;9.30;98.50
42145;DHT22;27813;43.516;11.890;2022-12-20T09:15:33;9.40;98.50
42145;DHT22;27813;43.516;11.890;2022-12-20T09:19:37;9.50;98.50
42145;DHT22;27813;43.516;11.890;2022-12-20T09:23:41;9.60;98.50
42145;DHT22;27813;43.516;11.890;2022-12-20T09:27:45;9.80;98.50
42145;DHT22;27813;43.516;11.890;2022-12-20T09:31:49;9.90;98.40
42145;DHT22;27813;43.516;11.890;2022-12-20T09:35:53;9.90;98.30
42145;DHT22;27813;43.516;11.890;2022-12-20T09:39:57;9.90;98.30
42145;DHT22;27813;43.516;11.890;2022-12-20T09:44:15;10.00;98.30
42145;DHT22;27813;43.516;11.890;2022-12-20T09:48:31;10.20;98.30
42145;DHT22;27813;43.516;11.890;2022-12-20T09:53:01;10.40;98.40
42145;DHT22;27813;43.516;11.890;2022-12-20T10:01:33;10.50;98.10
42145;DHT22;27813;43.516;11.890;2022-12-20T10:05:51;10.60;98.10
42145;DHT22;27813;43.516;11.890;2022-12-20T10:22:45;11.20;98.10
42145;DHT22;27813;43.516;11.890;2022-12-20T10:26:51;11.40;97.90
42145;DHT22;27813;43.516;11.890;2022-12-20T10:31:00;11.50;97.80
42145;DHT22;27813;43.516;11.890;2022-12-20T10:39:39;11.50;97.70
42145;DHT22;27813;43.516;11.890;2022-12-20T10:43:48;11.60;97.70
42145;DHT22;27813;43.516;11.890;2022-12-20T10:47:58;11.80;97.90
42145;DHT22;27813;43.516;11.890;2022-12-20T10:52:11;12.00;97.80
42145;DHT22;27813;43.516;11.890;2022-12-20T10:56:22;12.10;97.80
42145;DHT22;27813;43.516;11.890;2022-12-20T11:00:28;12.20;97.50
42145;DHT22;27813;43.516;11.890;2022-12-20T11:04:35;12.10;97.40
42145;DHT22;27813;43.516;11.890;2022-12-20T11:08:41;12.20;97.40
42145;DHT22;27813;43.516;11.890;2022-12-20T11:12:58;12.20;97.40
42145;DHT22;27813;43.516;11.890;2022-12-20T11:17:13;12.20;97.50
42145;DHT22;27813;43.516;11.890;2022-12-20T11:21:41;12.30;97.40
42145;DHT22;27813;43.516;11.890;2022-12-20T11:52:51;13.30;96.90
42145;DHT22;27813;43.516;11.890;2022-12-20T11:57:04;13.30;96.90
42145;DHT22;27813;43.516;11.890;2022-12-20T12:01:18;13.30;97.00
42145;DHT22;27813;43.516;11.890;2022-12-20T12:05:25;13.50;97.20
42145;DHT22;27813;43.516;11.890;2022-12-20T12:09:37;13.50;97.20
42145;DHT22;27813;43.516;11.890;2022-12-20T12:13:42;13.70;97.10
42145;DHT22;27813;43.516;11.890;2022-12-20T12:17:51;13.80;97.10
42145;DHT22;27813;43.516;11.890;2022-12-20T12:22:01;13.90;96.90
42145;DHT22;27813;43.516;11.890;2022-12-20T12:30:21;13.90;96.80
42145;DHT22;27813;43.516;11.890;2022-12-20T12:47:56;13.50;96.40
42145;DHT22;27813;43.516;11.890;2022-12-20T12:52:04;13.20;96.50
42145;DHT22;27813;43.516;11.890;2022-12-20T12:56:28;13.00;96.80
42145;DHT22;27813;43.516;11.890;2022-12-20T13:01:00;13.10;97.30
42145;DHT22;27813;43.516;11.890;2022-12-20T13:09:21;13.50;97.30
42145;DHT22;27813;43.516;11.890;2022-12-20T13:13:38;13.70;97.20
42145;DHT22;27813;43.516;11.890;2022-12-20T13:17:56;13.80;96.90
42145;DHT22;27813;43.516;11.890;2022-12-20T13:22:24;13.90;96.80
42145;DHT22;27813;43.516;11.890;2022-12-20T13:26:48;13.90;96.90
42145;DHT22;27813;43.516;11.890;2022-12-20T13:39:31;13.90;96.70
42145;DHT22;27813;43.516;11.890;2022-12-20T13:43:44;13.80;96.70
42145;DHT22;27813;43.516;11.890;2022-12-20T13:48:02;13.70;96.70
42145;DHT22;27813;43.516;11.890;2022-12-20T13:52:31;13.60;96.70
42145;DHT22;27813;43.516;11.890;2022-12-20T13:56:48;13.50;96.80
42145;DHT22;27813;43.516;11.890;2022-12-20T14:00:53;13.50;97.00
42145;DHT22;27813;43.516;11.890;2022-12-20T14:09:33;13.50;97.10
42145;DHT22;27813;43.516;11.890;2022-12-20T14:13:38;13.40;96.90
42145;DHT22;27813;43.516;11.890;2022-12-20T14:17:42;13.20;96.70
42145;DHT22;27813;43.516;11.890;2022-12-20T14:21:47;13.00;96.70
42145;DHT22;27813;43.516;11.890;2022-12-20T14:25:53;12.80;96.70
42145;DHT22;27813;43.516;11.890;2022-12-20T14:29:57;12.60;96.80
42145;DHT22;27813;43.516;11.890;2022-12-20T14:38:27;12.50;97.50
42145;DHT22;27813;43.516;11.890;2022-12-20T14:42:35;12.40;97.50
42145;DHT22;27813;43.516;11.890;2022-12-20T14:46:50;12.30;97.40
42145;DHT22;27813;43.516;11.890;2022-12-20T14:51:03;12.20;97.50
42145;DHT22;27813;43.516;11.890;2022-12-20T14:55:18;12.20;97.60
42145;DHT22;27813;43.516;11.890;2022-12-20T14:59:28;12.10;97.60
42145;DHT22;27813;43.516;11.890;2022-12-20T15:03:34;12.00;97.60
42145;DHT22;27813;43.516;11.890;2022-12-20T15:07:40;12.00;97.70
42145;DHT22;27813;43.516;11.890;2022-12-20T15:11:45;11.90;97.60
42145;DHT22;27813;43.516;11.890;2022-12-20T15:15:51;11.70;97.30
42145;DHT22;27813;43.516;11.890;2022-12-20T15:19:55;11.50;97.20
42145;DHT22;27813;43.516;11.890;2022-12-20T15:24:02;11.30;97.10
42145;DHT22;27813;43.516;11.890;2022-12-20T15:28:17;11.00;97.00
42145;DHT22;27813;43.516;11.890;2022-12-20T15:32:26;10.80;96.80
42145;DHT22;27813;43.516;11.890;2022-12-20T15:36:34;10.60;97.10
42145;DHT22;27813;43.516;11.890;2022-12-20T15:40:39;10.50;97.50
42145;DHT22;27813;43.516;11.890;2022-12-20T15:44:43;10.50;97.70
42145;DHT22;27813;43.516;11.890;2022-12-20T15:48:48;10.50;97.90
42145;DHT22;27813;43.516;11.890;2022-12-20T15:52:52;10.50;98.00
42145;DHT22;27813;43.516;11.890;2022-12-20T15:57:00;10.60;98.20
42145;DHT22;27813;43.516;11.890;2022-12-20T16:01:08;10.60;98.20
42145;DHT22;27813;43.516;11.890;2022-12-20T16:05:15;10.70;98.20
42145;DHT22;27813;43.516;11.890;2022-12-20T16:09:19;10.70;98.30
42145;DHT22;27813;43.516;11.890;2022-12-20T16:13:24;10.70;98.40
42145;DHT22;27813;43.516;11.890;2022-12-20T16:17:28;10.70;98.30
42145;DHT22;27813;43.516;11.890;2022-12-20T16:21:39;10.70;98.30
42145;DHT22;27813;43.516;11.890;2022-12-20T16:25:45;10.60;98.20
42145;DHT22;27813;43.516;11.890;2022-12-20T16:29:49;10.60;98.10
42145;DHT22;27813;43.516;11.890;2022-12-20T16:34:09;10.50;98.10
42145;DHT22;27813;43.516;11.890;2022-12-20T16:38:15;10.50;98.20
42145;DHT22;27813;43.516;11.890;2022-12-20T16:42:24;10.40;98.20
42145;DHT22;27813;43.516;11.890;2022-12-20T16:46:36;10.40;98.30
42145;DHT22;27813;43.516;11.890;2022-12-20T16:50:40;10.40;98.30
42145;DHT22;27813;43.516;11.890;2022-12-20T16:54:46;10.40;98.20
42145;DHT22;27813;43.516;11.890;2022-12-20T16:58:50;10.30;98.20
42145;DHT22;27813;43.516;11.890;2022-12-20T17:03:14;10.40;98.20
42145;DHT22;27813;43.516;11.890;2022-12-20T17:07:18;10.30;98.20
42145;DHT22;27813;43.516;11.890;2022-12-20T17:11:24;10.20;98.10
42145;DHT22;27813;43.516;11.890;2022-12-20T17:15:29;10.20;98.10
42145;DHT22;27813;43.516;11.890;2022-12-20T17:19:34;10.20;98.20
42145;DHT22;27813;43.516;11.890;2022-12-20T17:23:39;10.20;98.20
42145;DHT22;27813;43.516;11.890;2022-12-20T17:27:44;10.10;98.10
42145;DHT22;27813;43.516;11.890;2022-12-20T17:31:48;10.10;98.20
42145;DHT22;27813;43.516;11.890;2022-12-20T17:35:52;10.00;98.20
42145;DHT22;27813;43.516;11.890;2022-12-20T17:39:57;10.00;98.10
42145;DHT22;27813;43.516;11.890;2022-12-20T17:44:01;9.90;98.10
42145;DHT22;27813;43.516;11.890;2022-12-20T17:48:05;9.70;98.00
42145;DHT22;27813;43.516;11.890;2022-12-20T17:52:13;9.60;97.90
42145;DHT22;27813;43.516;11.890;2022-12-20T17:56:29;9.60;98.00
42145;DHT22;27813;43.516;11.890;2022-12-20T18:00:33;9.60;98.10
42145;DHT22;27813;43.516;11.890;2022-12-20T18:04:42;9.60;98.20
42145;DHT22;27813;43.516;11.890;2022-12-20T18:08:48;9.60;98.20
42145;DHT22;27813;43.516;11.890;2022-12-20T18:12:52;9.60;98.20
42145;DHT22;27813;43.516;11.890;2022-12-20T18:16:56;9.60;98.20
42145;DHT22;27813;43.516;11.890;2022-12-20T18:21:03;9.60;98.30
42145;DHT22;27813;43.516;11.890;2022-12-20T18:25:07;9.60;98.30
42145;DHT22;27813;43.516;11.890;2022-12-20T18:29:12;9.60;98.30
42145;DHT22;27813;43.516;11.890;2022-12-20T18:33:17;9.60;98.30
42145;DHT22;27813;43.516;11.890;2022-12-20T18:37:21;9.60;98.20
42145;DHT22;27813;43.516;11.890;2022-12-20T18:41:27;9.50;98.20
42145;DHT22;27813;43.516;11.890;2022-12-20T18:45:33;9.40;98.00
42145;DHT22;27813;43.516;11.890;2022-12-20T18:49:37;9.20;97.80
42145;DHT22;27813;43.516;11.890;2022-12-20T18:53:42;9.00;97.70
42145;DHT22;27813;43.516;11.890;2022-12-20T18:57:47;9.00;97.70
42145;DHT22;27813;43.516;11.890;2022-12-20T19:01:51;9.00;97.90
42145;DHT22;27813;43.516;11.890;2022-12-20T19:05:56;9.10;98.20
42145;DHT22;27813;43.516;11.890;2022-12-20T19:10:00;9.20;98.20
42145;DHT22;27813;43.516;11.890;2022-12-20T19:14:05;9.20;98.10
42145;DHT22;27813;43.516;11.890;2022-12-20T19:18:10;9.10;98.10
42145;DHT22;27813;43.516;11.890;2022-12-20T19:22:14;9.10;98.10
42145;DHT22;27813;43.516;11.890;2022-12-20T19:26:21;9.10;98.10
42145;DHT22;27813;43.516;11.890;2022-12-20T19:30:25;9.10;98.20
42145;DHT22;27813;43.516;11.890;2022-12-20T19:34:30;9.20;98.30
42145;DHT22;27813;43.516;11.890;2022-12-20T19:38:34;9.30;98.30
42145;DHT22;27813;43.516;11.890;2022-12-20T19:42:40;9.40;98.40
42145;DHT22;27813;43.516;11.890;2022-12-20T19:46:45;9.40;98.40
42145;DHT22;27813;43.516;11.890;2022-12-20T19:50:50;9.40;98.40
42145;DHT22;27813;43.516;11.890;2022-12-20T19:54:56;9.40;98.40
42145;DHT22;27813;43.516;11.890;2022-12-20T19:59:00;9.40;98.40
42145;DHT22;27813;43.516;11.890;2022-12-20T20:03:06;9.40;98.30
42145;DHT22;27813;43.516;11.890;2022-12-20T20:07:12;9.40;98.30
42145;DHT22;27813;43.516;11.890;2022-12-20T20:11:17;9.30;98.30
42145;DHT22;27813;43.516;11.890;2022-12-20T20:15:21;9.30;98.30
42145;DHT22;27813;43.516;11.890;2022-12-20T20:19:25;9.30;98.30
42145;DHT22;27813;43.516;11.890;2022-12-20T20:23:30;9.20;98.30
42145;DHT22;27813;43.516;11.890;2022-12-20T20:27:34;9.20;98.30
42145;DHT22;27813;43.516;11.890;2022-12-20T20:31:38;9.20;98.20
42145;DHT22;27813;43.516;11.890;2022-12-20T20:35:53;9.10;98.30
42145;DHT22;27813;43.516;11.890;2022-12-20T20:39:57;9.10;98.30
42145;DHT22;27813;43.516;11.890;2022-12-20T20:44:04;9.10;98.30
42145;DHT22;27813;43.516;11.890;2022-12-20T20:48:09;9.00;98.20
42145;DHT22;27813;43.516;11.890;2022-12-20T20:52:14;9.00;98.20
42145;DHT22;27813;43.516;11.890;2022-12-20T20:56:20;8.90;98.10
42145;DHT22;27813;43.516;11.890;2022-12-20T21:00:25;8.70;98.00
42145;DHT22;27813;43.516;11.890;2022-12-20T21:04:37;8.60;97.90
42145;DHT22;27813;43.516;11.890;2022-12-20T21:09:03;8.50;97.90
42145;DHT22;27813;43.516;11.890;2022-12-20T21:13:10;8.30;97.60
42145;DHT22;27813;43.516;11.890;2022-12-20T21:17:19;8.00;97.20
42145;DHT22;27813;43.516;11.890;2022-12-20T21:21:24;7.70;97.00
42145;DHT22;27813;43.516;11.890;2022-12-20T21:25:32;7.50;96.90
42145;DHT22;27813;43.516;11.890;2022-12-20T21:29:38;7.30;96.90
42145;DHT22;27813;43.516;11.890;2022-12-20T21:33:45;7.20;97.00
42145;DHT22;27813;43.516;11.890;2022-12-20T21:37:49;7.00;97.00
42145;DHT22;27813;43.516;11.890;2022-12-20T21:41:55;6.90;96.90
42145;DHT22;27813;43.516;11.890;2022-12-20T21:46:04;6.80;96.90
42145;DHT22;27813;43.516;11.890;2022-12-20T21:50:14;6.60;96.80
42145;DHT22;27813;43.516;11.890;2022-12-20T21:54:18;6.50;96.80
42145;DHT22;27813;43.516;11.890;2022-12-20T21:58:27;6.40;97.00
42145;DHT22;27813;43.516;11.890;2022-12-20T22:02:31;6.40;97.30
42145;DHT22;27813;43.516;11.890;2022-12-20T22:06:36;6.60;97.70
42145;DHT22;27813;43.516;11.890;2022-12-20T22:10:40;6.80;98.00
42145;DHT22;27813;43.516;11.890;2022-12-20T22:14:44;7.00;98.20
42145;DHT22;27813;43.516;11.890;2022-12-20T22:18:50;7.20;98.20
42145;DHT22;27813;43.516;11.890;2022-12-20T22:22:54;7.30;98.30
42145;DHT22;27813;43.516;11.890;2022-12-20T22:26:58;7.50;98.40
42145;DHT22;27813;43.516;11.890;2022-12-20T22:31:09;7.60;98.40
42145;DHT22;27813;43.516;11.890;2022-12-20T22:35:13;7.70;98.50
42145;DHT22;27813;43.516;11.890;2022-12-20T22:39:24;7.70;98.40
42145;DHT22;27813;43.516;11.890;2022-12-20T22:43:28;7.80;98.40
42145;DHT22;27813;43.516;11.890;2022-12-20T22:47:33;7.80;98.40
42145;DHT22;27813;43.516;11.890;2022-12-20T22:51:37;7.90;98.50
42145;DHT22;27813;43.516;11.890;2022-12-20T22:55:42;7.90;98.50
42145;DHT22;27813;43.516;11.890;2022-12-20T22:59:47;8.00;98.60
42145;DHT22;27813;43.516;11.890;2022-12-20T23:03:52;8.00;98.50
42145;DHT22;27813;43.516;11.890;2022-12-20T23:07:57;8.10;98.50
42145;DHT22;27813;43.516;11.890;2022-12-20T23:12:03;8.10;98.60
42145;DHT22;27813;43.516;11.890;2022-12-20T23:16:26;8.20;98.60
42145;DHT22;27813;43.516;11.890;2022-12-20T23:20:31;8.20;98.50
42145;DHT22;27813;43.516;11.890;2022-12-20T23:24:53;8.30;98.50
42145;DHT22;27813;43.516;11.890;2022-12-20T23:28:57;8.30;98.50
42145;DHT22;27813;43.516;11.890;2022-12-20T23:33:01;8.30;98.50
42145;DHT22;27813;43.516;11.890;2022-12-20T23:37:05;8.30;98.50
42145;DHT22;27813;43.516;11.890;2022-12-20T23:41:11;8.30;98.50
42145;DHT22;27813;43.516;11.890;2022-12-20T23:45:16;8.30;98.50
42145;DHT22;27813;43.516;11.890;2022-12-20T23:49:21;8.20;98.40
42145;DHT22;27813;43.516;11.890;2022-12-20T23:53:26;8.30;98.50
42145;DHT22;27813;43.516;11.890;2022-12-20T23:57:30;8.30;98.50
